Hovedside
METAR-TAF:

METAR-TAF

Lufthavner :

Sofia lufthavn

Sofia, Bulgaria

breddegrad: 42-39N, lengdegrad: 023-23E, høyde over havet: 586 m

Gjeldene værobservasjon

Denne rapporten ble laget for 22 minutter siden, klokken 17:30 UTC
Vind 12 kt fra Vest
Temperatur 17°C
Luftfuktighet 48%
Trykk 1018 hPa
Sikt 10 km eller mer
Brutte skyer i en høyde av 5200 ft

METAR: LBSF 231730Z 28012KT 9999 BKN052 17/06 Q1018 NOSIG

Tid: 20:52 (17:52 UTC)

Varsel

Denne rapporten ble laget for 52 minutter siden, klokken 17:00 UTC
Varsel gyldig fra 23. klokken 18 UTC til 24. klokken 18 UTC
Vind 14 kt fra Vest-nordvest
Sikt 10 km eller mer
Spredte skyer i en høyde av 5000 ft
Blir
fra 23. klokken 20 UTC til 23. klokken 22 UTC
Vind 8 kt fra Nord
Blir
fra 24. klokken 13 UTC til 24. klokken 15 UTC
Vind 10 kt fra Nordøst

TAF: LBSF 231700Z 2318/2418 29014KT 9999 SCT050 BECMG 2320/2322 35008KT BECMG 2413/2415 05010KT

Værobservasjoner og værvarsel for over 4000 flyplasser (METAR- og TAF-rapporter).

Tilgjengelige stasjoner er representert av de røde og gule prikkene på kartet.

Hold musepekeren over prikken for å se navnet på stasjonen.

Klikk så for å se værobservasjoner og -varsler.

For å forandre kartet kan du klikke på den grønne knappen med svart kryss for å zoome inn, på den grønne knappen med strek for å zoome ut, eller på de grønne pilene for å se tilstøtende kart.


METAR-TAF: